createdAt,value
2019-02-08T00:00:28.291Z,7.20
2019-02-08T00:02:30.285Z,10.48
2019-02-08T00:04:32.083Z,8.55
2019-02-08T00:06:34.002Z,6.20
2019-02-08T00:08:35.831Z,6.55
2019-02-08T00:10:37.555Z,6.83
2019-02-08T00:12:39.657Z,9.63
2019-02-08T00:14:41.646Z,5.55
2019-02-08T00:16:43.532Z,5.78
2019-02-08T00:18:45.367Z,10.00
2019-02-08T00:20:47.074Z,9.33
2019-02-08T00:22:49.117Z,12.58
2019-02-08T00:24:51.017Z,6.00
2019-02-08T00:26:52.728Z,9.93
2019-02-08T00:28:54.464Z,9.88
2019-02-08T00:30:56.783Z,7.35
2019-02-08T00:32:58.625Z,7.62
2019-02-08T00:35:00.505Z,7.87
2019-02-08T00:37:02.438Z,10.93
2019-02-08T00:39:09.198Z,5.83
2019-02-08T00:41:11.028Z,6.67
2019-02-08T00:43:12.740Z,8.48
2019-02-08T00:45:15.375Z,8.45
2019-02-08T00:47:17.113Z,8.75
2019-02-08T00:49:18.922Z,10.58
2019-02-08T00:51:20.666Z,6.40
2019-02-08T00:53:22.496Z,9.23
2019-02-08T00:55:24.634Z,10.10
2019-02-08T00:57:26.434Z,10.40
2019-02-08T00:59:28.200Z,9.95
2019-02-08T01:01:30.041Z,11.38
2019-02-08T01:03:31.945Z,12.50
2019-02-08T01:05:34.113Z,13.28
2019-02-08T01:07:35.994Z,10.75
2019-02-08T01:09:37.794Z,12.18
2019-02-08T01:11:39.664Z,13.28
2019-02-08T01:13:42.072Z,6.85
2019-02-08T01:15:43.983Z,11.38
2019-02-08T01:17:46.092Z,18.20
2019-02-08T01:19:47.901Z,10.30
2019-02-08T01:21:49.845Z,10.38
2019-02-08T01:23:51.776Z,8.95
2019-02-08T01:25:53.596Z,10.48
2019-02-08T01:27:55.636Z,9.68
2019-02-08T01:29:57.493Z,9.13
2019-02-08T01:31:59.257Z,13.75
2019-02-08T01:34:00.962Z,15.70
2019-02-08T01:36:03.001Z,14.73
2019-02-08T01:38:04.904Z,7.67
2019-02-08T01:40:10.739Z,13.50
2019-02-08T01:42:12.456Z,17.02
2019-02-08T01:44:14.254Z,11.57
2019-02-08T01:46:16.152Z,11.35
2019-02-08T01:48:17.875Z,12.60
2019-02-08T01:50:21.992Z,14.87
2019-02-08T01:52:23.822Z,18.98
2019-02-08T01:54:25.747Z,14.25
2019-02-08T01:56:27.552Z,21.60
2019-02-08T01:58:29.706Z,11.65
2019-02-08T02:00:34.345Z,16.00
2019-02-08T02:02:36.268Z,10.95
2019-02-08T02:04:38.077Z,12.20
2019-02-08T02:06:39.801Z,12.73
2019-02-08T02:08:41.500Z,12.43
2019-02-08T02:10:43.832Z,14.93
2019-02-08T02:12:45.976Z,16.12
2019-02-08T02:14:47.676Z,14.53
2019-02-08T02:16:49.594Z,14.47
2019-02-08T02:18:51.696Z,13.48
2019-02-08T02:20:53.505Z,18.20
2019-02-08T02:22:55.501Z,17.98
2019-02-08T02:24:57.210Z,13.60
2019-02-08T02:26:58.925Z,15.23
2019-02-08T02:29:00.981Z,15.10
2019-02-08T02:31:03.164Z,11.90
2019-02-08T02:33:07.191Z,19.52
2019-02-08T02:35:09.761Z,15.25
2019-02-08T02:37:11.457Z,19.12
2019-02-08T02:39:13.279Z,15.23
2019-02-08T02:41:14.999Z,14.03
2019-02-08T02:43:16.792Z,11.60
2019-02-08T02:45:25.636Z,12.13
2019-02-08T02:47:27.339Z,15.55
2019-02-08T02:49:29.155Z,13.35
2019-02-08T02:51:31.274Z,12.58
2019-02-08T02:53:32.972Z,16.32
2019-02-08T02:55:35.271Z,12.80
2019-02-08T02:57:37.187Z,16.30
2019-02-08T02:59:39.252Z,13.78
2019-02-08T03:01:41.501Z,15.72
2019-02-08T03:03:43.197Z,14.95
2019-02-08T03:05:45.116Z,18.65
2019-02-08T03:07:47.021Z,18.23
2019-02-08T03:09:48.925Z,9.48
2019-02-08T03:11:50.657Z,15.30
2019-02-08T03:13:52.367Z,16.75
2019-02-08T03:15:54.080Z,19.07
2019-02-08T03:17:55.821Z,16.02
2019-02-08T03:19:57.543Z,14.47
2019-02-08T03:21:59.249Z,12.47
2019-02-08T03:24:00.980Z,23.77
2019-02-08T03:26:03.125Z,20.20
2019-02-08T03:30:36.562Z,17.07
2019-02-08T03:32:38.263Z,15.53
2019-02-08T03:34:40.000Z,18.12
2019-02-08T03:36:41.713Z,15.85
2019-02-08T03:38:43.440Z,15.55
2019-02-08T03:40:45.148Z,17.95
2019-02-08T03:42:46.973Z,16.75
2019-02-08T03:44:48.778Z,14.40
2019-02-08T03:46:50.586Z,14.75
2019-02-08T03:48:52.451Z,14.95
2019-02-08T03:50:54.376Z,20.65
2019-02-08T03:52:56.272Z,20.40
2019-02-08T03:54:58.108Z,23.95
2019-02-08T03:56:59.813Z,13.95
2019-02-08T03:59:01.640Z,21.25
2019-02-08T04:01:05.463Z,19.95
2019-02-08T04:03:07.278Z,19.95
2019-02-08T04:05:09.429Z,18.45
2019-02-08T04:07:11.396Z,23.40
2019-02-08T04:09:13.301Z,22.25
2019-02-08T04:11:15.200Z,20.00
2019-02-08T04:13:16.909Z,17.70
2019-02-08T04:15:18.957Z,17.32
2019-02-08T04:17:20.780Z,19.75
2019-02-08T04:19:22.698Z,20.82
2019-02-08T04:21:24.634Z,18.42
2019-02-08T04:23:26.742Z,16.02
2019-02-08T04:25:28.441Z,21.55
2019-02-08T04:27:30.140Z,23.22
2019-02-08T04:29:32.021Z,25.60
2019-02-08T04:31:33.713Z,15.23
2019-02-08T04:33:35.426Z,22.15
2019-02-08T04:35:37.160Z,29.15
2019-02-08T04:37:38.861Z,17.27
2019-02-08T04:39:40.569Z,23.12
2019-02-08T04:41:42.448Z,21.50
2019-02-08T04:43:44.155Z,25.92
2019-02-08T04:45:45.960Z,17.35
2019-02-08T04:47:48.006Z,17.10
2019-02-08T04:49:49.817Z,18.60
2019-02-08T04:51:51.549Z,18.92
2019-02-08T04:53:53.468Z,22.80
2019-02-08T04:55:55.166Z,18.27
2019-02-08T04:57:56.980Z,21.70
2019-02-08T04:59:58.695Z,17.17
2019-02-08T05:02:00.597Z,20.68
2019-02-08T05:04:03.020Z,39.55
2019-02-08T05:06:04.969Z,23.22
2019-02-08T05:08:06.789Z,16.75
2019-02-08T05:10:09.550Z,21.02
2019-02-08T05:12:11.307Z,27.07
2019-02-08T05:14:13.293Z,18.48
2019-02-08T05:16:14.992Z,20.32
2019-02-08T05:18:16.888Z,18.23
2019-02-08T05:20:20.606Z,20.20
2019-02-08T05:22:22.317Z,26.27
2019-02-08T05:24:24.124Z,18.15
2019-02-08T05:26:26.094Z,18.35
2019-02-08T05:28:27.946Z,19.10
2019-02-08T05:30:31.569Z,15.15
2019-02-08T05:32:33.270Z,22.10
2019-02-08T05:34:35.261Z,22.67
2019-02-08T05:36:37.227Z,16.77
2019-02-08T05:38:38.917Z,16.42
2019-02-08T05:40:40.654Z,21.50
2019-02-08T05:42:42.677Z,18.15
2019-02-08T05:44:44.538Z,21.87
2019-02-08T05:46:46.270Z,16.65
2019-02-08T05:48:48.068Z,17.85
2019-02-08T05:50:49.777Z,15.88
2019-02-08T05:52:51.704Z,20.82
2019-02-08T05:54:54.551Z,16.62
2019-02-08T05:56:56.520Z,18.65
2019-02-08T05:58:58.260Z,18.57
2019-02-08T06:01:00.193Z,19.90
2019-02-08T06:03:01.993Z,19.30
2019-02-08T06:05:05.622Z,22.00
2019-02-08T06:07:07.429Z,19.10
2019-02-08T06:09:09.450Z,18.40
2019-02-08T06:11:11.253Z,20.90
2019-02-08T06:13:13.076Z,16.73
2019-02-08T06:15:16.501Z,17.52
2019-02-08T06:17:18.371Z,15.40
2019-02-08T06:19:20.290Z,15.55
2019-02-08T06:21:22.114Z,21.45
2019-02-08T06:23:23.824Z,15.23
2019-02-08T06:25:25.630Z,17.95
2019-02-08T06:27:27.339Z,16.37
2019-02-08T06:29:29.157Z,20.92
2019-02-08T06:31:30.897Z,17.70
2019-02-08T06:33:32.634Z,17.23
2019-02-08T06:35:37.741Z,29.32
2019-02-08T06:37:44.528Z,19.65
2019-02-08T06:39:43.267Z,13.58
2019-02-08T06:41:45.276Z,14.87
2019-02-08T06:43:47.792Z,19.90
2019-02-08T06:45:49.488Z,10.60
2019-02-08T06:47:51.701Z,13.75
2019-02-08T06:54:47.964Z,11.38
2019-02-08T06:57:05.156Z,16.87
2019-02-08T06:59:20.800Z,16.82
2019-02-08T07:01:48.514Z,16.77
2019-02-08T07:04:28.097Z,12.85
2019-02-08T07:06:39.488Z,12.95
2019-02-08T07:09:00.041Z,9.68
2019-02-08T07:11:25.586Z,17.30
2019-02-08T07:13:52.812Z,15.13
2019-02-08T07:16:14.435Z,15.05
2019-02-08T07:18:34.301Z,13.65
2019-02-08T07:20:42.771Z,17.87
2019-02-08T07:23:09.467Z,15.10
2019-02-08T07:25:29.542Z,10.40
2019-02-08T07:27:42.646Z,12.78
2019-02-08T07:29:53.362Z,15.85
2019-02-08T07:32:13.270Z,19.55
2019-02-08T07:34:22.513Z,20.30
2019-02-08T07:36:42.381Z,11.45
2019-02-08T07:39:04.062Z,17.25
2019-02-08T07:41:25.612Z,11.93
2019-02-08T07:43:34.365Z,14.58
2019-02-08T07:46:02.436Z,13.58
2019-02-08T07:48:14.497Z,12.47
2019-02-08T07:50:40.400Z,18.25
2019-02-08T07:53:01.969Z,17.73
2019-02-08T07:55:40.136Z,15.95
2019-02-08T07:57:58.496Z,11.45
2019-02-08T08:00:25.943Z,11.22
2019-02-08T08:02:48.750Z,13.38
2019-02-08T08:05:03.230Z,18.07
2019-02-08T08:07:21.796Z,13.90
2019-02-08T08:09:46.007Z,14.93
2019-02-08T08:11:58.392Z,17.55
2019-02-08T08:14:25.795Z,12.07
2019-02-08T08:17:09.681Z,19.65
2019-02-08T08:19:24.651Z,15.00
2019-02-08T08:21:52.773Z,14.40
2019-02-08T08:24:22.550Z,17.80
2019-02-08T08:26:50.851Z,17.02
2019-02-08T08:29:27.121Z,17.65
2019-02-08T08:31:58.187Z,17.15
2019-02-08T08:34:07.725Z,15.50
2019-02-08T08:36:41.378Z,12.63
2019-02-08T08:39:19.624Z,12.93
2019-02-08T08:41:43.777Z,18.55
2019-02-08T08:44:36.583Z,17.40
2019-02-08T08:47:06.237Z,19.57
2019-02-08T08:49:45.766Z,19.17
2019-02-08T08:52:31.284Z,19.05
2019-02-08T08:55:10.944Z,14.15
2019-02-08T08:57:39.701Z,18.30
2019-02-08T08:59:58.277Z,16.05
2019-02-08T09:02:21.747Z,18.05
2019-02-08T09:04:57.750Z,21.27
2019-02-08T09:07:44.571Z,14.90
2019-02-08T09:10:43.311Z,18.90
2019-02-08T09:13:04.409Z,14.03
2019-02-08T09:15:54.024Z,15.08
2019-02-08T09:18:33.814Z,17.00
2019-02-08T09:20:48.750Z,19.98
2019-02-08T09:23:43.620Z,15.98
2019-02-08T09:26:23.316Z,22.73
2019-02-08T09:29:02.590Z,25.62
2019-02-08T09:31:47.373Z,19.67
2019-02-08T09:34:30.662Z,17.98
2019-02-08T09:37:12.922Z,16.48
2019-02-08T09:40:11.997Z,19.82
2019-02-08T09:42:42.287Z,19.50
2019-02-08T09:45:19.872Z,18.35
2019-02-08T09:48:05.153Z,16.75
2019-02-08T09:50:49.120Z,17.52
2019-02-08T09:53:44.789Z,20.65
2019-02-08T09:56:10.238Z,21.10
2019-02-08T09:58:56.425Z,18.92
2019-02-08T10:01:22.137Z,19.50
2019-02-08T10:03:59.090Z,17.52
2019-02-08T10:07:03.894Z,22.35
2019-02-08T10:09:43.547Z,19.98
2019-02-08T10:12:23.153Z,18.80
2019-02-08T10:15:01.226Z,20.65
2019-02-08T10:17:43.653Z,21.17
2019-02-08T10:20:21.742Z,23.00
2019-02-08T10:22:52.100Z,20.10
2019-02-08T10:25:30.064Z,20.77
2019-02-08T10:28:06.465Z,23.92
2019-02-08T10:30:47.739Z,24.00
2019-02-08T10:33:42.187Z,22.30
2019-02-08T10:36:20.282Z,25.55
2019-02-08T10:39:00.157Z,21.05
2019-02-08T10:41:45.439Z,19.35
2019-02-08T10:44:19.862Z,21.87
2019-02-08T10:46:54.009Z,20.55
2019-02-08T10:49:45.645Z,22.07
2019-02-08T10:52:24.708Z,19.55
2019-02-08T10:55:08.044Z,20.62
2019-02-08T10:57:40.150Z,21.40
2019-02-08T11:00:28.477Z,21.48
2019-02-08T11:03:10.868Z,19.50
2019-02-08T11:05:48.980Z,24.20
2019-02-08T11:08:56.761Z,24.75
2019-02-08T11:11:42.692Z,25.70
2019-02-08T11:14:18.712Z,21.00
2019-02-08T11:16:53.318Z,24.92
2019-02-08T11:19:16.605Z,28.35
2019-02-08T11:21:18.393Z,24.35
2019-02-08T11:23:20.132Z,23.75
2019-02-08T11:25:22.033Z,20.97
2019-02-08T11:27:23.738Z,23.67
2019-02-08T11:29:25.870Z,24.72
2019-02-08T11:31:27.950Z,19.67
2019-02-08T11:33:29.668Z,20.77
2019-02-08T11:35:31.409Z,19.98
2019-02-08T11:37:33.227Z,21.77
2019-02-08T11:39:34.933Z,29.45
2019-02-08T11:41:36.661Z,23.57
2019-02-08T11:43:38.374Z,20.52
2019-02-08T11:45:40.082Z,24.40
2019-02-08T11:47:41.932Z,22.55
2019-02-08T11:49:43.641Z,22.85
2019-02-08T11:51:45.454Z,21.05
2019-02-08T11:53:47.196Z,23.83
2019-02-08T11:55:49.010Z,19.40
2019-02-08T11:57:50.721Z,22.95
2019-02-08T11:59:52.620Z,24.55
2019-02-08T12:01:54.420Z,28.10
2019-02-08T12:03:56.137Z,19.73
2019-02-08T12:05:58.056Z,19.02
2019-02-08T12:08:00.031Z,20.60
2019-02-08T12:10:02.041Z,20.50
2019-02-08T12:12:04.253Z,23.50
2019-02-08T12:14:06.175Z,16.90
2019-02-08T12:16:08.082Z,21.12
2019-02-08T12:18:10.064Z,19.57
2019-02-08T12:20:12.169Z,16.60
2019-02-08T12:22:13.884Z,25.12
2019-02-08T12:24:15.633Z,14.73
2019-02-08T12:26:17.321Z,15.70
2019-02-08T12:28:19.124Z,19.23
2019-02-08T12:30:24.269Z,16.20
2019-02-08T12:32:25.986Z,16.80
2019-02-08T12:34:27.687Z,17.93
2019-02-08T12:36:29.870Z,16.73
2019-02-08T12:38:31.573Z,20.40
2019-02-08T12:40:33.389Z,17.80
2019-02-08T12:42:35.444Z,13.73
2019-02-08T12:44:37.396Z,14.53
2019-02-08T12:46:39.212Z,15.63
2019-02-08T12:48:40.940Z,15.83
2019-02-08T12:50:42.857Z,16.27
2019-02-08T12:52:44.764Z,18.87
2019-02-08T12:54:46.472Z,15.13
2019-02-08T12:56:48.182Z,16.47
2019-02-08T12:58:49.980Z,14.55
2019-02-08T13:00:51.901Z,19.65
2019-02-08T13:02:53.807Z,22.65
2019-02-08T13:04:55.829Z,19.30
2019-02-08T13:06:57.531Z,21.60
2019-02-08T13:08:59.266Z,17.02
2019-02-08T13:11:01.084Z,20.72
2019-02-08T13:13:02.989Z,16.87
2019-02-08T13:15:05.813Z,17.23
2019-02-08T13:17:07.621Z,16.90
2019-02-08T13:19:09.433Z,17.20
2019-02-08T13:21:11.422Z,16.45
2019-02-08T13:23:13.484Z,17.17
2019-02-08T13:25:17.334Z,17.00
2019-02-08T13:27:19.249Z,17.77
2019-02-08T13:29:21.068Z,15.35
2019-02-08T13:31:22.886Z,16.02
2019-02-08T13:33:24.793Z,13.70
2019-02-08T13:35:27.253Z,14.27
2019-02-08T13:37:28.972Z,15.50
2019-02-08T13:39:31.074Z,16.75
2019-02-08T13:41:32.813Z,14.30
2019-02-08T13:43:34.514Z,12.27
2019-02-08T13:45:36.440Z,14.93
2019-02-08T13:47:38.271Z,15.00
2019-02-08T13:49:39.982Z,17.92
2019-02-08T13:51:41.694Z,12.30
2019-02-08T13:53:43.476Z,11.78
2019-02-08T13:55:45.169Z,17.20
2019-02-08T13:57:47.224Z,13.07
2019-02-08T13:59:48.945Z,15.20
2019-02-08T14:01:50.641Z,14.33
2019-02-08T14:03:52.351Z,11.33
2019-02-08T14:05:54.317Z,14.53
2019-02-08T14:07:56.025Z,10.63
2019-02-08T14:09:57.761Z,11.53
2019-02-08T14:11:59.476Z,12.10
2019-02-08T14:14:02.500Z,10.17
2019-02-08T14:16:04.530Z,12.70
2019-02-08T14:18:06.465Z,12.23
2019-02-08T14:20:10.821Z,10.40
2019-02-08T14:22:12.750Z,9.17
2019-02-08T14:24:16.224Z,8.00
2019-02-08T14:26:18.226Z,10.37
2019-02-08T14:28:20.211Z,9.07
2019-02-08T14:30:25.184Z,8.43
2019-02-08T14:32:26.984Z,8.00
2019-02-08T14:34:28.685Z,12.80
2019-02-08T14:36:30.695Z,8.33
2019-02-08T14:38:32.501Z,8.50
2019-02-08T14:40:34.317Z,11.60
2019-02-08T14:42:36.130Z,12.30
2019-02-08T14:44:37.950Z,11.77
2019-02-08T14:46:39.904Z,7.40
2019-02-08T14:48:41.701Z,8.63
2019-02-08T14:50:43.540Z,6.90
2019-02-08T14:52:45.782Z,7.77
2019-02-08T14:54:47.486Z,7.43
2019-02-08T14:56:49.181Z,15.23
2019-02-08T14:58:51.011Z,8.60
2019-02-08T15:00:52.723Z,8.80
2019-02-08T15:02:54.523Z,8.57
2019-02-08T15:04:56.324Z,9.57
2019-02-08T15:06:58.234Z,8.13
2019-02-08T15:08:59.956Z,8.53
2019-02-08T15:11:01.668Z,8.07
2019-02-08T15:13:03.592Z,6.30
2019-02-08T15:15:05.732Z,7.53
2019-02-08T15:17:07.817Z,7.70
2019-02-08T15:19:09.526Z,9.57
2019-02-08T15:21:11.229Z,7.70
2019-02-08T15:23:13.221Z,7.37
2019-02-08T15:25:15.589Z,7.43
2019-02-08T15:27:23.997Z,6.83
2019-02-08T15:29:20.904Z,7.03
2019-02-08T15:31:22.605Z,6.27
2019-02-08T15:33:24.320Z,6.07
2019-02-08T15:35:26.757Z,7.43
2019-02-08T15:37:28.568Z,8.43
2019-02-08T15:39:30.269Z,11.20
2019-02-08T15:41:32.009Z,6.63
2019-02-08T15:43:33.794Z,7.77
2019-02-08T15:45:35.739Z,6.17
2019-02-08T15:47:37.533Z,9.33
2019-02-08T15:49:39.469Z,9.27
2019-02-08T15:51:41.481Z,6.40
2019-02-08T15:53:43.185Z,6.50
2019-02-08T15:55:47.868Z,8.50
2019-02-08T15:57:49.702Z,6.97
2019-02-08T15:59:51.530Z,6.80
2019-02-08T16:01:53.422Z,8.60
2019-02-08T16:03:55.128Z,6.57
2019-02-08T16:05:56.911Z,7.57
2019-02-08T16:07:58.952Z,6.03
2019-02-08T16:10:00.650Z,5.43
2019-02-08T16:12:02.605Z,10.13
2019-02-08T16:14:04.706Z,7.83
2019-02-08T16:16:06.873Z,5.43
2019-02-08T16:18:09.332Z,8.90
2019-02-08T16:24:21.812Z,6.80
2019-02-08T16:26:23.519Z,6.20
2019-02-08T16:28:25.277Z,6.53
2019-02-08T16:30:28.439Z,8.13
2019-02-08T16:32:33.006Z,7.12
2019-02-08T16:34:36.440Z,7.58
2019-02-08T16:36:38.865Z,8.08
2019-02-08T16:38:40.684Z,7.40
2019-02-08T16:40:42.396Z,6.78
2019-02-08T16:42:44.232Z,9.53
2019-02-08T16:44:46.129Z,15.60
2019-02-08T16:46:47.937Z,6.00
2019-02-08T16:48:49.878Z,8.80
2019-02-08T16:50:51.741Z,7.85
2019-02-08T16:52:53.699Z,7.43
2019-02-08T16:54:55.606Z,9.57
2019-02-08T16:56:57.494Z,7.37
2019-02-08T16:58:59.214Z,7.00
2019-02-08T17:01:01.133Z,6.47
2019-02-08T17:03:06.509Z,5.60
2019-02-08T17:05:10.469Z,8.13
2019-02-08T17:07:12.301Z,11.38
2019-02-08T17:09:14.049Z,8.40
2019-02-08T17:11:15.764Z,6.33
2019-02-08T17:13:17.468Z,5.80
2019-02-08T17:15:21.170Z,7.95
2019-02-08T17:17:22.882Z,10.68
2019-02-08T17:19:24.606Z,6.53
2019-02-08T17:21:26.449Z,11.10
2019-02-08T17:23:28.153Z,6.12
2019-02-08T17:25:30.520Z,6.33
2019-02-08T17:27:32.805Z,7.23
2019-02-08T17:29:35.006Z,7.40
2019-02-08T17:31:36.825Z,6.08
2019-02-08T17:33:38.654Z,12.53
2019-02-08T17:35:41.391Z,5.07
2019-02-08T17:37:43.403Z,5.83
2019-02-08T17:39:45.292Z,4.70
2019-02-08T17:41:47.020Z,10.50
2019-02-08T17:43:48.722Z,5.20
2019-02-08T17:45:50.633Z,6.00
2019-02-08T17:47:53.021Z,5.77
2019-02-08T17:49:54.786Z,7.83
2019-02-08T17:51:56.482Z,6.50
2019-02-08T17:53:58.365Z,5.72
2019-02-08T17:56:00.062Z,9.20
2019-02-08T17:58:03.771Z,5.20
2019-02-08T18:00:10.509Z,7.20
2019-02-08T18:02:12.229Z,4.80
2019-02-08T18:04:13.936Z,8.50
2019-02-08T18:06:15.642Z,5.50
2019-02-08T18:08:17.571Z,8.43
2019-02-08T18:10:19.549Z,9.17
2019-02-08T18:12:21.248Z,6.47
2019-02-08T18:14:23.100Z,5.70
2019-02-08T18:16:24.918Z,6.23
2019-02-08T18:18:26.736Z,6.43
2019-02-08T18:20:30.993Z,8.00
2019-02-08T18:22:32.863Z,4.53
2019-02-08T18:24:34.739Z,7.33
2019-02-08T18:26:36.438Z,7.00
2019-02-08T18:28:38.248Z,6.63
2019-02-08T18:30:40.122Z,5.87
2019-02-08T18:32:41.830Z,5.73
2019-02-08T18:34:43.574Z,5.67
2019-02-08T18:36:45.525Z,6.63
2019-02-08T18:38:47.225Z,4.90
2019-02-08T18:40:49.133Z,7.37
2019-02-08T18:42:51.037Z,4.60
2019-02-08T18:44:52.770Z,9.87
2019-02-08T18:46:54.639Z,8.70
2019-02-08T18:48:56.695Z,5.60
2019-02-08T18:50:58.395Z,5.90
2019-02-08T18:53:00.205Z,5.37
2019-02-08T18:55:02.306Z,8.43
2019-02-08T18:57:04.328Z,8.03
2019-02-08T18:59:06.138Z,7.93
2019-02-08T19:01:08.073Z,6.00
2019-02-08T19:03:09.980Z,5.90
2019-02-08T19:05:12.857Z,5.20
2019-02-08T19:07:14.762Z,7.10
2019-02-08T19:09:16.566Z,5.30
2019-02-08T19:11:18.286Z,5.00
2019-02-08T19:13:20.240Z,7.80
2019-02-08T19:15:22.313Z,6.87
2019-02-08T19:17:24.024Z,6.57
2019-02-08T19:19:25.757Z,5.23
2019-02-08T19:21:27.469Z,5.27
2019-02-08T19:23:29.170Z,8.57
2019-02-08T19:25:33.018Z,5.63
2019-02-08T19:27:34.733Z,5.93
2019-02-08T19:29:36.549Z,6.10
2019-02-08T19:31:38.505Z,5.57
2019-02-08T19:33:40.186Z,7.30
2019-02-08T19:35:42.085Z,7.27
2019-02-08T19:51:46.353Z,6.30
2019-02-08T19:53:48.090Z,6.30
2019-02-08T19:55:49.984Z,5.63
2019-02-08T19:57:51.906Z,5.67
2019-02-08T19:59:53.613Z,5.73
2019-02-08T20:01:55.305Z,5.23
2019-02-08T20:03:57.105Z,4.50
2019-02-08T20:05:58.945Z,6.07
2019-02-08T20:08:00.754Z,7.77
2019-02-08T20:10:05.746Z,4.80
2019-02-08T20:12:07.456Z,5.07
2019-02-08T20:14:09.544Z,5.27
2019-02-08T20:16:11.481Z,4.53
2019-02-08T20:18:13.572Z,4.40
2019-02-08T20:20:15.852Z,5.63
2019-02-08T20:22:17.664Z,4.70
2019-02-08T20:24:19.363Z,6.67
2019-02-08T20:26:21.328Z,8.87
2019-02-08T20:28:23.032Z,4.37
2019-02-08T20:30:25.198Z,6.17
2019-02-08T20:32:26.926Z,6.30
2019-02-08T20:34:28.728Z,6.20
2019-02-08T20:36:30.812Z,8.57
2019-02-08T20:38:32.551Z,4.63
2019-02-08T20:40:36.710Z,4.77
2019-02-08T20:42:38.509Z,6.10
2019-02-08T20:44:40.306Z,4.30
2019-02-08T20:46:42.117Z,8.17
2019-02-08T20:48:44.309Z,4.37
2019-02-08T20:50:46.428Z,5.77
2019-02-08T20:52:49.022Z,4.47
2019-02-08T20:54:50.875Z,6.27
2019-02-08T20:56:58.786Z,5.50
2019-02-08T20:58:56.273Z,6.77
2019-02-08T21:00:58.231Z,5.50
2019-02-08T21:03:00.546Z,4.27
2019-02-08T21:05:02.880Z,4.90
2019-02-08T21:07:04.593Z,6.53
2019-02-08T21:09:11.210Z,5.67
2019-02-08T21:11:13.011Z,6.33
2019-02-08T21:13:14.905Z,4.87
2019-02-08T21:15:17.046Z,5.17
2019-02-08T21:17:18.752Z,4.27
2019-02-08T21:19:20.457Z,7.93
2019-02-08T21:21:22.285Z,4.60
2019-02-08T21:23:23.984Z,6.70
2019-02-08T21:25:27.765Z,6.77
2019-02-08T21:27:29.481Z,10.33
2019-02-08T21:29:31.373Z,4.80
2019-02-08T21:31:33.353Z,5.33
2019-02-08T21:33:35.076Z,5.80
2019-02-08T21:35:36.997Z,4.37
2019-02-08T21:37:38.808Z,4.67
2019-02-08T21:39:40.745Z,6.10
2019-02-08T21:41:42.544Z,7.33
2019-02-08T21:43:44.461Z,6.20
2019-02-08T21:45:46.270Z,5.00
2019-02-08T21:47:48.083Z,5.30
2019-02-08T21:49:49.785Z,4.57
2019-02-08T21:51:51.600Z,5.80
2019-02-08T21:53:53.300Z,4.30
2019-02-08T21:55:55.254Z,5.47
2019-02-08T21:57:57.216Z,4.47
2019-02-08T21:59:58.956Z,4.07
2019-02-08T22:02:01.121Z,5.83
2019-02-08T22:04:02.964Z,4.60
2019-02-08T22:06:07.557Z,5.00
2019-02-08T22:08:09.496Z,6.00
2019-02-08T22:10:12.221Z,5.57
2019-02-08T22:12:13.916Z,6.13
2019-02-08T22:14:15.681Z,6.27
2019-02-08T22:16:17.532Z,4.67
2019-02-08T22:18:19.310Z,4.60
2019-02-08T22:20:21.204Z,6.43
2019-02-08T22:22:22.952Z,5.30
2019-02-08T22:24:24.682Z,5.03
2019-02-08T22:26:26.481Z,5.30
2019-02-08T22:28:28.440Z,5.37
2019-02-08T22:30:30.350Z,8.63
2019-02-08T22:32:32.169Z,5.50
2019-02-08T22:34:34.138Z,5.07
2019-02-08T22:36:35.949Z,5.03
2019-02-08T22:38:37.751Z,4.27
2019-02-08T22:40:39.475Z,10.60
2019-02-08T22:42:41.372Z,5.17
2019-02-08T22:44:43.069Z,5.43
2019-02-08T22:46:44.897Z,5.53
2019-02-08T22:48:46.606Z,7.87
2019-02-08T22:50:48.322Z,4.33
2019-02-08T22:52:50.384Z,8.40
2019-02-08T22:54:52.088Z,5.53
2019-02-08T22:56:53.806Z,8.50
2019-02-08T22:58:55.633Z,7.00
2019-02-08T23:01:21.772Z,6.50
2019-02-08T23:03:23.936Z,4.00
2019-02-08T23:05:25.925Z,5.57
2019-02-08T23:07:27.721Z,4.43
2019-02-08T23:09:29.404Z,7.23
2019-02-08T23:11:31.205Z,6.50
2019-02-08T23:13:33.192Z,6.20
2019-02-08T23:15:35.110Z,9.83
2019-02-08T23:17:36.811Z,4.33
2019-02-08T23:19:38.536Z,5.00
2019-02-08T23:21:40.365Z,8.63
2019-02-08T23:23:42.157Z,10.70
2019-02-08T23:25:44.015Z,4.70
2019-02-08T23:27:45.936Z,6.70
2019-02-08T23:29:47.648Z,6.30
2019-02-08T23:31:49.382Z,7.77
2019-02-08T23:33:51.077Z,5.97
2019-02-08T23:35:52.792Z,4.73
2019-02-08T23:37:54.845Z,6.13
2019-02-08T23:39:56.562Z,4.70
2019-02-08T23:41:58.373Z,6.57
2019-02-08T23:44:00.105Z,8.37
2019-02-08T23:46:01.918Z,4.93
2019-02-08T23:48:03.745Z,6.03
2019-02-08T23:50:06.301Z,4.90
2019-02-08T23:52:08.134Z,5.20
2019-02-08T23:54:09.954Z,4.57
2019-02-08T23:56:11.693Z,6.90
2019-02-08T23:58:13.585Z,4.53
